createdAt,value
2023-01-05T00:04:25.483Z,4.97
2023-01-05T00:09:29.239Z,5.47
2023-01-05T00:14:50.060Z,5.55
2023-01-05T00:20:10.359Z,5.28
2023-01-05T00:25:13.255Z,5.25
2023-01-05T00:30:15.763Z,5.07
2023-01-05T00:35:17.659Z,4.68
2023-01-05T00:40:20.099Z,4.97
2023-01-05T00:45:22.181Z,4.55
2023-01-05T00:50:24.176Z,4.80
2023-01-05T00:55:25.646Z,4.55
2023-01-05T01:00:27.209Z,3.88
2023-01-05T01:05:28.685Z,4.85
2023-01-05T01:10:30.147Z,4.13
2023-01-05T01:15:31.566Z,4.43
2023-01-05T01:20:32.987Z,3.97
2023-01-05T01:25:34.711Z,4.53
2023-01-05T01:30:37.950Z,3.65
2023-01-05T01:35:39.486Z,3.67
2023-01-05T01:40:41.550Z,4.18
2023-01-05T01:45:43.606Z,4.85
2023-01-05T01:50:48.376Z,4.43
2023-01-05T01:55:50.744Z,5.97
2023-01-05T02:00:52.561Z,4.78
2023-01-05T02:05:54.859Z,5.00
2023-01-05T02:11:02.255Z,4.22
2023-01-05T02:16:04.284Z,4.18
2023-01-05T02:21:16.874Z,3.92
2023-01-05T02:26:21.613Z,4.78
2023-01-05T02:31:25.224Z,4.03
2023-01-05T02:36:39.036Z,4.22
2023-01-05T02:42:18.900Z,4.07
2023-01-05T02:47:26.074Z,5.00
2023-01-05T02:52:27.791Z,4.47
2023-01-05T02:57:48.211Z,5.10
2023-01-05T03:02:52.151Z,5.45
2023-01-05T03:07:54.800Z,4.03
2023-01-05T03:13:16.152Z,5.32
2023-01-05T03:18:19.857Z,4.45
2023-01-05T03:23:40.449Z,5.90
2023-01-05T03:29:16.658Z,4.22
2023-01-05T03:34:45.631Z,4.50
2023-01-05T03:39:47.308Z,4.25
2023-01-05T03:44:49.175Z,4.35
2023-01-05T03:49:51.357Z,5.13
2023-01-05T03:54:52.759Z,3.80
2023-01-05T03:59:54.230Z,4.88
2023-01-05T04:04:55.736Z,4.03
2023-01-05T04:09:57.163Z,4.28
2023-01-05T04:14:58.580Z,5.03
2023-01-05T04:19:59.997Z,4.75
2023-01-05T04:25:01.443Z,4.53
2023-01-05T04:30:03.087Z,3.67
2023-01-05T04:35:10.832Z,4.05
2023-01-05T04:40:13.061Z,4.05
2023-01-05T04:45:14.452Z,4.43
2023-01-05T04:50:15.843Z,4.80
2023-01-05T04:55:17.412Z,4.55
2023-01-05T05:00:18.870Z,3.88
2023-01-05T05:05:20.299Z,5.25
2023-01-05T05:10:21.770Z,3.65
2023-01-05T05:15:23.223Z,4.18
2023-01-05T05:20:24.749Z,4.80
2023-01-05T05:25:26.217Z,4.82
2023-01-05T05:30:27.639Z,4.43
2023-01-05T05:35:29.075Z,4.72
2023-01-05T05:40:30.477Z,3.78
2023-01-05T05:45:31.923Z,3.08
2023-01-05T05:50:33.472Z,3.60
2023-01-05T05:55:34.924Z,3.80
2023-01-05T06:00:36.360Z,3.90
2023-01-05T06:05:37.871Z,3.45
2023-01-05T06:10:39.937Z,4.07
2023-01-05T06:15:42.127Z,3.67
2023-01-05T06:20:43.615Z,4.22
2023-01-05T06:25:45.063Z,4.72
2023-01-05T06:30:46.477Z,4.65
2023-01-05T06:35:47.947Z,5.13
2023-01-05T06:40:49.354Z,4.90
2023-01-05T06:45:50.807Z,4.00
2023-01-05T06:50:52.398Z,4.57
2023-01-05T06:55:54.048Z,4.00
2023-01-05T07:00:55.532Z,4.72
2023-01-05T07:05:56.998Z,4.32
2023-01-05T07:10:58.442Z,3.80
2023-01-05T07:15:59.896Z,4.18
2023-01-05T07:21:01.350Z,4.30
2023-01-05T07:26:02.841Z,3.65
2023-01-05T07:31:05.023Z,3.47
2023-01-05T07:36:06.648Z,4.20
2023-01-05T07:41:08.202Z,3.90
2023-01-05T07:46:10.166Z,3.83
2023-01-05T07:51:11.775Z,4.57
2023-01-05T07:56:13.342Z,4.43
2023-01-05T08:01:16.219Z,3.88
2023-01-05T08:06:19.146Z,3.45
2023-01-05T08:11:21.919Z,4.20
2023-01-05T08:16:23.566Z,4.00
2023-01-05T08:21:25.117Z,2.95
2023-01-05T08:26:26.939Z,3.78
2023-01-05T08:31:29.445Z,4.50
2023-01-05T08:36:33.614Z,4.47
2023-01-05T08:46:51.614Z,2.78
2023-01-05T08:51:53.586Z,3.17
2023-01-05T08:56:55.080Z,3.95
2023-01-05T09:01:56.662Z,3.78
2023-01-05T09:06:58.520Z,3.30
2023-01-05T09:11:59.971Z,3.45
2023-01-05T09:17:09.146Z,3.50
2023-01-05T09:22:11.135Z,3.10
2023-01-05T09:27:12.644Z,4.00
2023-01-05T09:32:14.142Z,4.47
2023-01-05T09:37:15.824Z,4.05
2023-01-05T09:42:19.484Z,3.08
2023-01-05T09:47:26.056Z,3.60
2023-01-05T09:52:29.441Z,3.38
2023-01-05T09:57:34.348Z,3.53
2023-01-05T10:02:58.170Z,4.05
2023-01-05T10:08:04.163Z,3.95
2023-01-05T10:13:07.333Z,4.07
2023-01-05T10:18:13.401Z,3.17
2023-01-05T10:23:35.287Z,4.00
2023-01-05T10:28:40.175Z,4.05
2023-01-05T10:34:05.041Z,4.20
2023-01-05T10:39:25.998Z,4.38
2023-01-05T10:44:27.411Z,4.47
2023-01-05T10:49:30.313Z,3.92
2023-01-05T10:54:34.787Z,4.32
2023-01-05T10:59:53.920Z,3.50
2023-01-05T11:05:00.444Z,4.57
2023-01-05T11:10:02.140Z,3.65
2023-01-05T11:15:03.986Z,3.30
2023-01-05T11:20:06.356Z,3.58
2023-01-05T11:25:19.239Z,3.75
2023-01-05T11:30:21.660Z,5.00
2023-01-05T11:35:33.497Z,5.68
2023-01-05T11:40:36.023Z,3.67
2023-01-05T11:45:45.235Z,3.95
2023-01-05T11:50:48.063Z,3.83
2023-01-05T11:55:58.749Z,4.28
2023-01-05T12:01:15.247Z,3.40
2023-01-05T12:06:30.140Z,3.80
2023-01-05T12:11:54.743Z,4.15
2023-01-05T12:16:56.700Z,4.53
2023-01-05T12:22:06.920Z,3.88
2023-01-05T12:27:20.399Z,3.60
2023-01-05T12:38:22.168Z,4.47
2023-01-05T12:43:40.331Z,3.47
2023-01-05T12:48:44.994Z,4.35
2023-01-05T12:53:58.693Z,4.53
2023-01-05T12:59:06.504Z,4.25
2023-01-05T13:04:34.270Z,4.80
2023-01-05T13:09:38.410Z,3.78
2023-01-05T13:15:01.161Z,4.18
2023-01-05T13:20:04.867Z,4.40
2023-01-05T13:25:09.299Z,4.32
2023-01-05T13:30:27.643Z,3.80
2023-01-05T13:35:47.681Z,5.20
2023-01-05T13:41:00.990Z,4.28
2023-01-05T13:46:02.439Z,4.18
2023-01-05T13:51:16.081Z,3.85
2023-01-05T13:56:19.831Z,4.00
2023-01-05T14:01:35.138Z,4.60
2023-01-05T14:06:38.025Z,4.25
2023-01-05T14:11:59.489Z,4.43
2023-01-05T14:17:00.938Z,5.13
2023-01-05T14:22:22.687Z,4.53
2023-01-05T14:27:25.201Z,5.28
2023-01-05T14:32:28.108Z,5.68
2023-01-05T14:37:38.266Z,5.53
2023-01-05T14:42:39.947Z,4.43
2023-01-05T14:47:41.447Z,5.93
2023-01-05T14:52:53.477Z,5.53
2023-01-05T14:57:56.692Z,5.03
2023-01-05T15:03:04.170Z,5.55
2023-01-05T15:08:18.392Z,6.25
2023-01-05T15:13:22.594Z,5.20
2023-01-05T15:18:30.931Z,4.97
2023-01-05T15:23:32.372Z,5.88
2023-01-05T15:28:36.638Z,4.70
2023-01-05T15:33:38.115Z,5.72
2023-01-05T15:38:46.634Z,5.13
2023-01-05T15:43:48.496Z,5.03
2023-01-05T15:48:53.987Z,5.68
2023-01-05T15:53:57.035Z,4.68
2023-01-05T15:58:59.024Z,5.03
2023-01-05T16:04:08.975Z,5.50
2023-01-05T16:09:30.987Z,5.57
2023-01-05T16:14:35.706Z,5.07
2023-01-05T16:19:41.311Z,5.07
2023-01-05T16:24:45.748Z,4.53
2023-01-05T16:29:48.168Z,3.33
2023-01-05T16:34:49.684Z,3.83
2023-01-05T16:40:00.920Z,4.22
2023-01-05T16:45:02.432Z,4.43
2023-01-05T16:50:22.395Z,3.80
2023-01-05T16:55:28.294Z,3.95
2023-01-05T17:00:30.234Z,4.57
2023-01-05T17:05:33.015Z,4.18
2023-01-05T17:10:34.491Z,4.13
2023-01-05T17:15:36.337Z,4.28
2023-01-05T17:25:46.039Z,4.53
2023-01-05T17:30:47.566Z,4.88
2023-01-05T17:35:49.521Z,5.93
2023-01-05T17:40:51.106Z,5.65
2023-01-05T17:45:52.681Z,4.57
2023-01-05T17:50:54.466Z,5.45
2023-01-05T17:55:56.007Z,5.22
2023-01-05T18:00:57.516Z,4.35
2023-01-05T18:06:00.374Z,5.20
2023-01-05T18:11:02.688Z,5.05
2023-01-05T18:16:08.739Z,5.65
2023-01-05T18:21:10.277Z,6.88
2023-01-05T18:26:11.767Z,6.93
2023-01-05T18:31:14.366Z,7.10
2023-01-05T18:36:16.256Z,6.90
2023-01-05T18:41:21.840Z,6.32
2023-01-05T18:46:23.339Z,7.55
2023-01-05T18:51:24.887Z,7.70
2023-01-05T18:56:26.545Z,7.28
2023-01-05T19:01:28.141Z,7.10
2023-01-05T19:06:29.649Z,8.18
2023-01-05T19:11:31.358Z,8.60
2023-01-05T19:16:33.794Z,8.68
2023-01-05T19:21:37.064Z,10.35
2023-01-05T19:26:38.546Z,9.88
2023-01-05T19:31:40.158Z,10.77
2023-01-05T19:36:41.652Z,10.55
2023-01-05T19:41:46.508Z,10.88
2023-01-05T19:46:54.689Z,10.98
2023-01-05T19:51:56.221Z,12.38
2023-01-05T19:56:57.720Z,12.50
2023-01-05T20:02:01.437Z,12.13
2023-01-05T20:07:04.187Z,12.48
2023-01-05T20:12:14.232Z,12.75
2023-01-05T20:17:16.584Z,12.85
2023-01-05T20:22:18.145Z,11.13
2023-01-05T20:27:19.941Z,11.48
2023-01-05T20:32:22.880Z,9.50
2023-01-05T20:37:24.319Z,9.10
2023-01-05T20:42:29.519Z,9.30
2023-01-05T20:47:39.412Z,8.30
2023-01-05T20:52:48.313Z,7.03
2023-01-05T20:57:51.190Z,6.82
2023-01-05T21:02:52.770Z,5.97
2023-01-05T21:07:54.262Z,5.00
2023-01-05T21:12:56.549Z,4.82
2023-01-05T21:18:17.975Z,4.07
2023-01-05T21:23:19.700Z,4.43
2023-01-05T21:28:21.199Z,3.58
2023-01-05T21:33:22.660Z,3.47
2023-01-05T21:38:24.779Z,3.30
2023-01-05T21:43:26.312Z,4.03
2023-01-05T21:48:28.273Z,3.70
2023-01-05T21:53:48.313Z,4.53
2023-01-05T21:58:49.827Z,4.32
2023-01-05T22:03:51.414Z,4.10
2023-01-05T22:08:52.861Z,3.67
2023-01-05T22:13:54.331Z,3.40
2023-01-05T22:18:55.879Z,3.80
2023-01-05T22:23:57.767Z,4.07
2023-01-05T22:28:59.180Z,3.20
2023-01-05T22:34:01.011Z,3.78
2023-01-05T22:39:02.505Z,3.83
2023-01-05T22:44:04.417Z,3.58
2023-01-05T22:49:05.845Z,3.70
2023-01-05T22:54:07.608Z,3.95
2023-01-05T22:59:09.104Z,3.00
2023-01-05T23:04:11.650Z,3.53
2023-01-05T23:09:14.767Z,3.45
2023-01-05T23:14:18.544Z,3.53
2023-01-05T23:19:20.159Z,2.80
2023-01-05T23:24:21.548Z,2.55
2023-01-05T23:29:22.989Z,2.08
2023-01-05T23:34:24.401Z,2.42
2023-01-05T23:39:25.961Z,2.35
2023-01-05T23:44:27.383Z,2.50
2023-01-05T23:49:28.866Z,2.30
2023-01-05T23:54:30.307Z,2.78
2023-01-05T23:59:50.436Z,2.75
